createdAt,value
2023-04-21T00:00:56.230Z,4.0608
2023-04-21T00:01:56.339Z,4.1144
2023-04-21T00:02:56.553Z,4.0546
2023-04-21T00:03:57.194Z,4.0135
2023-04-21T00:04:57.597Z,4.0063
2023-04-21T00:05:57.817Z,3.9923
2023-04-21T00:06:57.843Z,3.9579
2023-04-21T00:07:57.895Z,3.9758
2023-04-21T00:08:58.044Z,3.9001
2023-04-21T00:09:58.120Z,3.9272
2023-04-21T00:10:58.170Z,3.9483
2023-04-21T00:11:58.274Z,3.8467
2023-04-21T00:12:58.326Z,3.8248
2023-04-21T00:13:58.420Z,3.8162
2023-04-21T00:14:58.543Z,3.7314
2023-04-21T00:15:58.575Z,3.6760
2023-04-21T00:16:58.667Z,3.6995
2023-04-21T00:17:58.753Z,3.6853
2023-04-21T00:18:58.866Z,3.6758
2023-04-21T00:19:58.938Z,3.6327
2023-04-21T00:20:59.031Z,3.6114
2023-04-21T00:21:59.185Z,3.5941
2023-04-21T00:22:59.296Z,3.5548
2023-04-21T00:23:59.474Z,3.5710
2023-04-21T00:24:59.571Z,3.6219
2023-04-21T00:25:59.633Z,3.6436
2023-04-21T00:26:59.682Z,3.6245
2023-04-21T00:27:59.718Z,3.6793
2023-04-21T00:28:59.748Z,3.6526
2023-04-21T00:29:59.855Z,3.5102
2023-04-21T00:31:00.089Z,3.4605
2023-04-21T00:32:00.230Z,3.4941
2023-04-21T00:33:00.351Z,3.5156
2023-04-21T00:34:00.522Z,3.5356
2023-04-21T00:35:00.583Z,3.4545
2023-04-21T00:36:00.766Z,3.3681
2023-04-21T00:37:00.850Z,3.3567
2023-04-21T00:38:00.941Z,3.4168
2023-04-21T00:39:01.068Z,3.4249
2023-04-21T00:40:01.208Z,3.4500
2023-04-21T00:41:01.325Z,3.4696
2023-04-21T00:42:01.377Z,3.3940
2023-04-21T00:43:01.534Z,3.3178
2023-04-21T00:44:01.598Z,3.3450
2023-04-21T00:45:01.820Z,3.3453
2023-04-21T00:46:01.872Z,3.3448
2023-04-21T00:47:02.259Z,3.3786
2023-04-21T00:48:02.803Z,3.3977
2023-04-21T00:49:02.865Z,3.3813
2023-04-21T00:50:02.997Z,3.3330
2023-04-21T00:51:03.058Z,3.2860
2023-04-21T00:52:03.143Z,3.3266
2023-04-21T00:53:03.365Z,3.3137
2023-04-21T00:54:03.456Z,3.3165
2023-04-21T00:55:03.511Z,3.3474
2023-04-21T00:56:03.617Z,3.3579
2023-04-21T00:57:03.671Z,3.3601
2023-04-21T00:58:03.760Z,3.3794
2023-04-21T00:59:03.949Z,3.4403
2023-04-21T01:00:03.995Z,3.4126
2023-04-21T01:01:04.136Z,3.4219
2023-04-21T01:02:04.422Z,3.4350
2023-04-21T01:03:04.893Z,3.3399
2023-04-21T01:04:05.461Z,3.2523
2023-04-21T01:05:06.106Z,3.2942
2023-04-21T01:06:06.235Z,3.2700
2023-04-21T01:07:06.317Z,3.3156
2023-04-21T01:08:06.346Z,3.3231
2023-04-21T01:09:06.432Z,3.3814
2023-04-21T01:10:06.529Z,3.3741
2023-04-21T01:11:06.599Z,3.4345
2023-04-21T01:12:06.655Z,3.3131
2023-04-21T01:13:06.764Z,3.3511
2023-04-21T01:14:06.839Z,3.3275
2023-04-21T01:15:06.897Z,3.3061
2023-04-21T01:16:07.014Z,3.3058
2023-04-21T01:17:07.075Z,3.2654
2023-04-21T01:18:07.152Z,3.3505
2023-04-21T01:19:07.477Z,3.3906
2023-04-21T01:20:07.915Z,3.4366
2023-04-21T01:21:08.042Z,3.3921
2023-04-21T01:22:08.066Z,3.3622
2023-04-21T01:23:08.176Z,3.3971
2023-04-21T01:24:08.251Z,3.4435
2023-04-21T01:25:08.379Z,3.4192
2023-04-21T01:26:08.484Z,3.4600
2023-04-21T01:27:08.570Z,3.5099
2023-04-21T01:28:08.686Z,3.4573
2023-04-21T01:29:08.754Z,3.4701
2023-04-21T01:30:08.776Z,3.4180
2023-04-21T01:31:08.879Z,3.4575
2023-04-21T01:32:09.023Z,3.4004
2023-04-21T01:33:09.184Z,3.3310
2023-04-21T01:34:09.311Z,3.3213
2023-04-21T01:35:09.366Z,3.3742
2023-04-21T01:36:09.507Z,3.4219
2023-04-21T01:37:09.596Z,3.4593
2023-04-21T01:38:09.688Z,3.4771
2023-04-21T01:39:09.803Z,3.4052
2023-04-21T01:40:09.866Z,3.5077
2023-04-21T01:41:09.957Z,3.4728
2023-04-21T01:42:10.023Z,3.4743
2023-04-21T01:43:10.072Z,3.4893
2023-04-21T01:44:10.151Z,3.4945
2023-04-21T01:45:12.417Z,3.3611
2023-04-21T01:46:12.555Z,3.4284
2023-04-21T01:47:12.621Z,3.4566
2023-04-21T01:48:12.682Z,3.4864
2023-04-21T01:49:12.744Z,3.5443
2023-04-21T01:50:12.791Z,3.5188
2023-04-21T01:51:12.866Z,3.5247
2023-04-21T01:52:12.935Z,3.5348
2023-04-21T01:53:12.980Z,3.4684
2023-04-21T01:54:13.193Z,3.4584
2023-04-21T01:55:13.223Z,3.4370
2023-04-21T01:56:13.322Z,3.4831
2023-04-21T01:57:13.394Z,3.4883
2023-04-21T01:58:13.600Z,3.5063
2023-04-21T01:59:13.635Z,3.4604
2023-04-21T02:00:13.702Z,3.5281
2023-04-21T02:01:13.911Z,3.4008
2023-04-21T02:02:14.012Z,3.4300
2023-04-21T02:03:14.464Z,3.4330
2023-04-21T02:04:15.309Z,3.4306
2023-04-21T02:05:15.625Z,3.4553
2023-04-21T02:06:15.739Z,3.3759
2023-04-21T02:07:15.848Z,3.4484
2023-04-21T02:08:15.896Z,3.4492
2023-04-21T02:09:15.937Z,3.4664
2023-04-21T02:10:16.017Z,3.4631
2023-04-21T02:11:16.124Z,3.4868
2023-04-21T02:12:16.169Z,3.4904
2023-04-21T02:13:16.209Z,3.4757
2023-04-21T02:14:16.263Z,3.4915
2023-04-21T02:15:16.317Z,3.4542
2023-04-21T02:16:16.395Z,3.4219
2023-04-21T02:17:16.433Z,3.4839
2023-04-21T02:18:16.486Z,3.5420
2023-04-21T02:19:16.620Z,3.5050
2023-04-21T02:20:17.198Z,3.4746
2023-04-21T02:21:17.213Z,3.5082
2023-04-21T02:22:17.252Z,3.5285
2023-04-21T02:23:18.323Z,3.5738
2023-04-21T02:24:18.383Z,3.6149
2023-04-21T02:25:18.804Z,3.5495
2023-04-21T02:26:20.954Z,3.5263
2023-04-21T02:27:20.991Z,3.5246
2023-04-21T02:28:21.068Z,3.5661
2023-04-21T02:29:21.277Z,3.5496
2023-04-21T02:30:21.750Z,3.5652
2023-04-21T02:31:21.848Z,3.5742
2023-04-21T02:32:25.837Z,3.5393
2023-04-21T02:33:24.044Z,3.6225
2023-04-21T02:34:24.118Z,3.5812
2023-04-21T02:35:24.142Z,3.5913
2023-04-21T02:36:24.213Z,3.6331
2023-04-21T02:37:24.280Z,3.6926
2023-04-21T02:38:24.331Z,3.7187
2023-04-21T02:39:24.381Z,3.6514
2023-04-21T02:40:24.558Z,3.6367
2023-04-21T02:41:24.642Z,3.6568
2023-04-21T02:42:24.652Z,3.6689
2023-04-21T02:43:24.663Z,3.6900
2023-04-21T02:44:24.709Z,3.7187
2023-04-21T02:45:24.810Z,3.6320
2023-04-21T02:46:25.034Z,3.6074
2023-04-21T02:47:25.166Z,3.6148
2023-04-21T02:48:25.316Z,3.6376
2023-04-21T02:49:25.404Z,3.6344
2023-04-21T02:50:25.430Z,3.5510
2023-04-21T02:51:25.498Z,3.5325
2023-04-21T02:52:25.537Z,3.5366
2023-04-21T02:53:25.662Z,3.5919
2023-04-21T02:54:25.726Z,3.5326
2023-04-21T02:55:25.739Z,3.5217
2023-04-21T02:56:25.797Z,3.5354
2023-04-21T02:57:25.843Z,3.5252
2023-04-21T02:58:25.901Z,3.4770
2023-04-21T02:59:25.924Z,3.4560
2023-04-21T03:00:26.153Z,3.4256
2023-04-21T03:01:26.459Z,3.4090
2023-04-21T03:02:27.316Z,3.4158
2023-04-21T03:03:28.225Z,3.4635
2023-04-21T03:04:28.924Z,3.4925
2023-04-21T03:05:29.508Z,3.4751
2023-04-21T03:06:29.669Z,3.5092
2023-04-21T03:07:29.788Z,3.4739
2023-04-21T03:08:29.874Z,3.4220
2023-04-21T03:09:29.994Z,3.4396
2023-04-21T03:10:30.137Z,3.4268
2023-04-21T03:11:30.291Z,3.4593
2023-04-21T03:12:30.439Z,3.4781
2023-04-21T03:13:30.550Z,3.4920
2023-04-21T03:14:30.619Z,3.4843
2023-04-21T03:15:30.737Z,3.4722
2023-04-21T03:16:30.968Z,3.4555
2023-04-21T03:17:33.205Z,3.4356
2023-04-21T03:18:31.396Z,3.4987
2023-04-21T03:19:31.561Z,3.5331
2023-04-21T03:20:31.671Z,3.5506
2023-04-21T03:21:31.821Z,3.5019
2023-04-21T03:22:31.976Z,3.4561
2023-04-21T03:23:32.091Z,3.4838
2023-04-21T03:24:32.182Z,3.4808
2023-04-21T03:25:32.334Z,3.5327
2023-04-21T03:26:32.386Z,3.5680
2023-04-21T03:27:32.566Z,3.5871
2023-04-21T03:28:32.652Z,3.5541
2023-04-21T03:29:32.772Z,3.5449
2023-04-21T03:30:34.036Z,3.5879
2023-04-21T03:31:34.130Z,3.5735
2023-04-21T03:32:34.316Z,3.5348
2023-04-21T03:33:34.413Z,3.5658
2023-04-21T03:34:34.640Z,3.6831
2023-04-21T03:35:34.700Z,3.6519
2023-04-21T03:36:34.765Z,3.8044
2023-04-21T03:37:34.874Z,3.7025
2023-04-21T03:38:35.102Z,3.6678
2023-04-21T03:39:35.197Z,3.6911
2023-04-21T03:40:35.321Z,3.6688
2023-04-21T03:41:35.425Z,3.6662
2023-04-21T03:42:35.554Z,3.6766
2023-04-21T03:43:35.797Z,3.7178
2023-04-21T03:44:35.824Z,3.7010
2023-04-21T03:45:36.150Z,3.7399
2023-04-21T03:46:36.349Z,3.7356
2023-04-21T03:47:36.512Z,3.7199
2023-04-21T03:48:36.796Z,3.6975
2023-04-21T03:49:36.945Z,3.6715
2023-04-21T03:50:37.073Z,3.6397
2023-04-21T03:51:37.190Z,3.7225
2023-04-21T03:52:37.312Z,3.7220
2023-04-21T03:53:37.440Z,3.6854
2023-04-21T03:54:37.571Z,3.6787
2023-04-21T03:55:37.701Z,3.7024
2023-04-21T03:56:37.836Z,3.7044
2023-04-21T03:57:37.901Z,3.7303
2023-04-21T03:58:38.129Z,3.7298
2023-04-21T03:59:38.249Z,3.7006
2023-04-21T04:00:38.334Z,3.7400
2023-04-21T04:01:39.091Z,3.7257
2023-04-21T04:02:39.474Z,3.7250
2023-04-21T04:03:41.164Z,3.7078
2023-04-21T04:04:42.021Z,3.6925
2023-04-21T04:05:42.666Z,3.7014
2023-04-21T04:06:42.807Z,3.7290
2023-04-21T04:07:42.893Z,3.7151
2023-04-21T04:08:43.027Z,3.7321
2023-04-21T04:09:43.098Z,3.7250
2023-04-21T04:10:43.206Z,3.7433
2023-04-21T04:11:43.332Z,3.6818
2023-04-21T04:12:43.532Z,3.6742
2023-04-21T04:13:43.666Z,3.5846
2023-04-21T04:14:43.767Z,3.6372
2023-04-21T04:15:43.979Z,3.7089
2023-04-21T04:16:44.064Z,3.7495
2023-04-21T04:17:44.149Z,3.7321
2023-04-21T04:18:44.235Z,3.7437
2023-04-21T04:19:44.422Z,3.7787
2023-04-21T04:20:44.500Z,3.8547
2023-04-21T04:21:44.792Z,3.8555
2023-04-21T04:22:45.125Z,3.7757
2023-04-21T04:23:45.333Z,3.7702
2023-04-21T04:24:45.476Z,3.8211
2023-04-21T04:25:45.590Z,3.7937
2023-04-21T04:26:45.648Z,3.8293
2023-04-21T04:27:45.821Z,3.8494
2023-04-21T04:28:45.979Z,3.8101
2023-04-21T04:29:46.076Z,3.8510
2023-04-21T04:30:46.297Z,3.8207
2023-04-21T04:31:46.471Z,3.8096
2023-04-21T04:32:46.753Z,3.8008
2023-04-21T04:33:46.929Z,3.7808
2023-04-21T04:34:47.052Z,3.7895
2023-04-21T04:35:47.122Z,3.8501
2023-04-21T04:36:47.228Z,3.9175
2023-04-21T04:37:47.323Z,3.8791
2023-04-21T04:38:47.385Z,3.8667
2023-04-21T04:39:47.511Z,3.8718
2023-04-21T04:40:47.639Z,3.8694
2023-04-21T04:41:47.737Z,3.9204
2023-04-21T04:42:47.820Z,3.9398
2023-04-21T04:43:47.895Z,3.9523
2023-04-21T04:44:47.985Z,3.9233
2023-04-21T04:45:48.069Z,3.8678
2023-04-21T04:46:48.167Z,3.8913
2023-04-21T04:47:48.401Z,3.9258
2023-04-21T04:48:48.587Z,3.9831
2023-04-21T04:49:48.764Z,4.0408
2023-04-21T04:50:48.806Z,4.0253
2023-04-21T04:51:48.906Z,3.9686
2023-04-21T04:52:49.253Z,3.9770
2023-04-21T04:53:49.368Z,3.9877
2023-04-21T04:54:49.541Z,3.9524
2023-04-21T04:55:49.685Z,3.9943
2023-04-21T04:56:49.780Z,3.9996
2023-04-21T04:57:49.955Z,4.0390
2023-04-21T04:58:50.120Z,4.0559
2023-04-21T04:59:50.218Z,4.0696
2023-04-21T05:00:50.342Z,4.0908
2023-04-21T05:01:50.538Z,4.0670
2023-04-21T05:02:50.760Z,4.0051
2023-04-21T05:03:51.214Z,4.0736
2023-04-21T05:04:51.744Z,4.0109
2023-04-21T05:05:52.381Z,4.0211
2023-04-21T05:06:52.448Z,4.0975
2023-04-21T05:07:52.554Z,4.0724
2023-04-21T05:08:52.847Z,4.0654
2023-04-21T05:09:52.992Z,4.1088
2023-04-21T05:10:53.056Z,4.0388
2023-04-21T05:11:53.109Z,4.0163
2023-04-21T05:12:53.191Z,4.0363
2023-04-21T05:13:53.262Z,4.0355
2023-04-21T05:14:53.422Z,4.0620
2023-04-21T05:15:53.464Z,4.0044
2023-04-21T05:16:53.636Z,4.0152
2023-04-21T05:17:53.787Z,4.0328
2023-04-21T05:18:53.921Z,3.9776
2023-04-21T05:19:54.265Z,4.0689
2023-04-21T05:20:54.350Z,4.1184
2023-04-21T05:21:54.465Z,4.1399
2023-04-21T05:22:54.500Z,4.0310
2023-04-21T05:23:54.633Z,4.0817
2023-04-21T05:24:54.705Z,4.1052
2023-04-21T05:25:54.809Z,4.1526
2023-04-21T05:26:54.902Z,4.2154
2023-04-21T05:27:55.072Z,4.3028
2023-04-21T05:28:55.140Z,4.3101
2023-04-21T05:29:55.235Z,4.3079
2023-04-21T05:30:55.355Z,4.3050
2023-04-21T05:31:55.429Z,4.0965
2023-04-21T05:32:55.573Z,4.0726
2023-04-21T05:33:55.826Z,3.9551
2023-04-21T05:34:55.940Z,3.9572
2023-04-21T05:35:56.059Z,3.9765
2023-04-21T05:36:56.208Z,4.0380
2023-04-21T05:37:56.277Z,4.1941
2023-04-21T05:38:56.360Z,4.2506
2023-04-21T05:39:56.493Z,4.2473
2023-04-21T05:40:56.567Z,4.2540
2023-04-21T05:41:56.677Z,4.2775
2023-04-21T05:42:56.805Z,4.2455
2023-04-21T05:43:56.886Z,4.3524
2023-04-21T05:44:56.997Z,4.4046
2023-04-21T05:45:57.258Z,4.4123
2023-04-21T05:46:57.435Z,4.4039
2023-04-21T05:47:57.592Z,4.3676
2023-04-21T05:48:57.661Z,4.3408
2023-04-21T05:49:57.782Z,4.4634
2023-04-21T05:50:57.829Z,4.4734
2023-04-21T05:51:57.915Z,4.3908
2023-04-21T05:52:58.119Z,4.4337
2023-04-21T05:53:58.250Z,4.4317
2023-04-21T05:54:58.325Z,4.4089
2023-04-21T05:55:58.382Z,4.3889
2023-04-21T05:56:58.591Z,4.4003
2023-04-21T05:57:58.654Z,4.4221
2023-04-21T05:58:58.739Z,4.3773
2023-04-21T05:59:58.798Z,4.4541
2023-04-21T06:00:58.899Z,4.4896
2023-04-21T06:01:59.053Z,4.3842
2023-04-21T06:02:59.402Z,4.3936
2023-04-21T06:04:00.470Z,4.4479
2023-04-21T06:05:01.674Z,4.4997
2023-04-21T06:06:02.490Z,4.4197
2023-04-21T06:07:02.804Z,4.4210
2023-04-21T06:08:02.915Z,4.4705
2023-04-21T06:09:02.995Z,4.4294
2023-04-21T06:10:03.098Z,4.4354
2023-04-21T06:11:03.150Z,4.3479
2023-04-21T06:12:03.274Z,4.3181
2023-04-21T06:13:03.348Z,4.2825
2023-04-21T06:14:03.460Z,4.2385
2023-04-21T06:15:03.524Z,4.2111
2023-04-21T06:16:03.621Z,4.2018
2023-04-21T06:17:03.734Z,4.1930
2023-04-21T06:18:03.857Z,4.2048
2023-04-21T06:19:03.945Z,4.1711
2023-04-21T06:20:04.016Z,4.1365
2023-04-21T06:21:04.154Z,4.0787
2023-04-21T06:22:04.197Z,4.1218
2023-04-21T06:23:04.285Z,4.1056
2023-04-21T06:24:04.365Z,4.0313
2023-04-21T06:25:04.445Z,3.9853
2023-04-21T06:26:04.580Z,3.9515
2023-04-21T06:27:04.676Z,3.9601
2023-04-21T06:28:04.787Z,3.9358
2023-04-21T06:29:04.821Z,3.9814
2023-04-21T06:30:04.913Z,4.0096
2023-04-21T06:31:08.520Z,4.0717
2023-04-21T06:32:07.176Z,4.0287
2023-04-21T06:33:07.525Z,4.0331
2023-04-21T06:34:07.687Z,4.0130
2023-04-21T06:35:07.752Z,3.9743
2023-04-21T06:36:07.892Z,3.9745
2023-04-21T06:37:08.014Z,4.1255
2023-04-21T06:38:08.160Z,4.1797
2023-04-21T06:39:08.245Z,4.1666
2023-04-21T06:40:08.346Z,4.2503
2023-04-21T06:41:08.399Z,4.3064
2023-04-21T06:42:08.472Z,4.1280
2023-04-21T06:43:08.546Z,3.9759
2023-04-21T06:44:08.648Z,3.9908
2023-04-21T06:45:08.764Z,4.0907
2023-04-21T06:46:08.897Z,4.2049
2023-04-21T06:47:09.033Z,4.2694
2023-04-21T06:48:09.173Z,4.3055
2023-04-21T06:49:09.293Z,4.3036
2023-04-21T06:50:09.318Z,4.3138
2023-04-21T06:51:09.417Z,4.3531
2023-04-21T06:52:09.486Z,4.4516
2023-04-21T06:53:09.552Z,4.4529
2023-04-21T06:54:09.568Z,4.4992
2023-04-21T06:55:09.629Z,4.5399
2023-04-21T06:56:09.672Z,4.4969
2023-04-21T06:57:09.785Z,4.5623
2023-04-21T06:58:09.838Z,4.5689
2023-04-21T06:59:09.872Z,4.4629
2023-04-21T07:00:10.036Z,4.5245
2023-04-21T07:01:11.274Z,4.5827
2023-04-21T07:02:11.556Z,4.5843
2023-04-21T07:03:11.676Z,4.6311
2023-04-21T07:04:12.364Z,4.6142
2023-04-21T07:05:12.465Z,4.5758
2023-04-21T07:06:12.519Z,4.5835
2023-04-21T07:07:12.624Z,4.6225
2023-04-21T07:08:12.685Z,4.6250
2023-04-21T07:09:12.794Z,4.6630
2023-04-21T07:10:12.857Z,4.7720
2023-04-21T07:11:12.901Z,4.8746
2023-04-21T07:12:12.966Z,4.8148
2023-04-21T07:13:12.994Z,4.8124
2023-04-21T07:14:13.070Z,4.6768
2023-04-21T07:15:13.195Z,4.6648
2023-04-21T07:16:13.250Z,4.5596
2023-04-21T07:17:13.330Z,4.4649
2023-04-21T07:18:13.560Z,4.4666
2023-04-21T07:19:13.651Z,4.4875
2023-04-21T07:20:13.728Z,4.6040
2023-04-21T07:21:13.874Z,4.7512
2023-04-21T07:22:13.922Z,4.7411
2023-04-21T07:23:13.968Z,4.7425
2023-04-21T07:24:14.064Z,4.7086
2023-04-21T07:25:14.177Z,4.7102
2023-04-21T07:26:14.249Z,4.7334
2023-04-21T07:27:14.371Z,4.7904
2023-04-21T07:28:14.481Z,4.9140
2023-04-21T07:29:14.530Z,4.9906
2023-04-21T07:30:14.601Z,5.1025
2023-04-21T07:31:14.745Z,5.2024
2023-04-21T07:32:15.029Z,5.2985
2023-04-21T07:33:15.164Z,5.4167
2023-04-21T07:34:15.271Z,5.4603
2023-04-21T07:35:15.349Z,5.1878
2023-04-21T07:36:15.457Z,4.9694
2023-04-21T07:37:15.570Z,5.0133
2023-04-21T07:38:15.697Z,5.1739
2023-04-21T07:39:15.771Z,5.2519
2023-04-21T07:40:15.899Z,5.3337
2023-04-21T07:41:16.094Z,5.2933
2023-04-21T07:42:16.284Z,5.2488
2023-04-21T07:43:16.400Z,5.1807
2023-04-21T07:44:16.545Z,5.2646
2023-04-21T07:45:16.666Z,5.3819
2023-04-21T07:46:16.851Z,5.4656
2023-04-21T07:47:17.084Z,5.3374
2023-04-21T07:48:17.372Z,5.2193
2023-04-21T07:49:17.788Z,5.1633
2023-04-21T07:50:18.451Z,5.1413
2023-04-21T07:51:18.931Z,5.1172
2023-04-21T07:52:19.041Z,5.1539
2023-04-21T07:53:19.190Z,5.1608
2023-04-21T07:54:19.278Z,5.1288
2023-04-21T07:55:19.416Z,5.2336
2023-04-21T07:56:19.496Z,5.3424
2023-04-21T07:57:19.605Z,5.3105
2023-04-21T07:58:19.698Z,5.2932
2023-04-21T07:59:19.981Z,5.2765
2023-04-21T08:00:20.635Z,5.3901
2023-04-21T08:01:20.756Z,5.4594
2023-04-21T08:02:20.957Z,5.4841
2023-04-21T08:03:23.809Z,5.4716
2023-04-21T08:04:23.188Z,5.5255
2023-04-21T08:05:27.354Z,5.4883
2023-04-21T08:06:25.600Z,5.5857
2023-04-21T08:07:25.800Z,5.5816
2023-04-21T08:08:25.887Z,5.5438
2023-04-21T08:09:25.954Z,5.5321
2023-04-21T08:10:26.019Z,5.5804
2023-04-21T08:11:26.103Z,5.6788
2023-04-21T08:12:26.190Z,5.8036
2023-04-21T08:13:26.259Z,5.7403
2023-04-21T08:14:26.512Z,5.5964
2023-04-21T08:15:26.569Z,5.4891
2023-04-21T08:16:26.717Z,5.4829
2023-04-21T08:17:26.873Z,5.5426
2023-04-21T08:18:26.942Z,5.5167
2023-04-21T08:19:27.014Z,5.5449
2023-04-21T08:20:27.100Z,5.5630
2023-04-21T08:21:29.422Z,5.5667
2023-04-21T08:22:29.225Z,5.6053
2023-04-21T08:23:31.753Z,5.6204
2023-04-21T08:24:30.153Z,5.7324
2023-04-21T08:25:30.248Z,5.7637
2023-04-21T08:26:30.486Z,5.8773
2023-04-21T08:27:30.750Z,5.9221
2023-04-21T08:28:30.910Z,6.0218
2023-04-21T08:29:31.015Z,5.9180
2023-04-21T08:30:31.108Z,5.8401
2023-04-21T08:31:31.297Z,5.8465
2023-04-21T08:32:31.933Z,5.7791
2023-04-21T08:33:32.068Z,6.0260
2023-04-21T08:34:32.204Z,5.9470
2023-04-21T08:35:32.378Z,5.9539
2023-04-21T08:36:32.429Z,5.9735
2023-04-21T08:37:32.563Z,5.9334
2023-04-21T08:38:32.669Z,5.9136
2023-04-21T08:39:32.744Z,5.8056
2023-04-21T08:40:32.779Z,5.7648
2023-04-21T08:41:32.855Z,5.7365
2023-04-21T08:42:32.971Z,5.7710
2023-04-21T08:43:33.068Z,5.6379
2023-04-21T08:44:33.132Z,5.6260
2023-04-21T08:45:33.243Z,5.5793
2023-04-21T08:46:33.336Z,5.5972
2023-04-21T08:47:33.568Z,5.8161
2023-04-21T08:48:33.781Z,5.9358
2023-04-21T08:49:33.879Z,6.1306
2023-04-21T08:50:33.980Z,6.2783
2023-04-21T08:51:34.085Z,6.3271
2023-04-21T08:52:34.145Z,6.4963
2023-04-21T08:53:34.322Z,6.6622
2023-04-21T08:54:34.349Z,6.7402
2023-04-21T08:55:34.478Z,6.6684
2023-04-21T08:56:34.536Z,6.3993
2023-04-21T08:57:34.643Z,6.5998
2023-04-21T08:58:34.733Z,6.7617
2023-04-21T08:59:34.786Z,6.9273
2023-04-21T09:00:34.827Z,6.8409
2023-04-21T09:01:34.957Z,6.7108
2023-04-21T09:02:35.195Z,6.6251
2023-04-21T09:03:35.596Z,6.6449
2023-04-21T09:04:36.520Z,6.4666
2023-04-21T09:05:41.889Z,6.4188
2023-04-21T09:06:38.995Z,6.5019
2023-04-21T09:07:39.110Z,6.3862
2023-04-21T09:08:39.184Z,6.4581
2023-04-21T09:09:39.234Z,6.4744
2023-04-21T09:10:39.303Z,6.3923
2023-04-21T09:11:39.374Z,6.3502
2023-04-21T09:12:39.464Z,6.3279
2023-04-21T09:13:39.529Z,6.4533
2023-04-21T09:14:39.624Z,6.5618
2023-04-21T09:15:40.332Z,6.5459
2023-04-21T09:16:40.562Z,6.6186
2023-04-21T09:17:40.716Z,6.7102
2023-04-21T09:18:40.945Z,6.7489
2023-04-21T09:19:40.993Z,6.7933
2023-04-21T09:20:41.025Z,6.7239
2023-04-21T09:21:41.087Z,6.7013
2023-04-21T09:22:41.195Z,6.4574
2023-04-21T09:23:41.249Z,6.5405
2023-04-21T09:24:41.367Z,6.7076
2023-04-21T09:25:42.502Z,6.7784
2023-04-21T09:26:42.564Z,6.9345
2023-04-21T09:27:42.619Z,6.9932
2023-04-21T09:28:42.874Z,6.9998
2023-04-21T09:29:42.928Z,7.1440
2023-04-21T09:30:43.038Z,7.2730
2023-04-21T09:31:43.228Z,7.4131
2023-04-21T09:32:43.479Z,7.5934
2023-04-21T09:33:56.540Z,7.5368
2023-04-21T09:34:43.636Z,7.5805
2023-04-21T09:35:43.658Z,7.7651
2023-04-21T09:36:43.725Z,7.5384
2023-04-21T09:37:43.792Z,7.3998
2023-04-21T09:38:45.604Z,7.4145
2023-04-21T09:39:53.167Z,7.2997
2023-04-21T09:40:45.849Z,7.0272
2023-04-21T09:41:45.902Z,7.0596
2023-04-21T09:42:45.933Z,7.2415
2023-04-21T09:43:46.072Z,7.3633
2023-04-21T09:44:53.238Z,7.3074
2023-04-21T09:45:46.134Z,7.2944
2023-04-21T09:46:46.250Z,7.4469
2023-04-21T09:47:46.586Z,7.5636
2023-04-21T09:48:46.744Z,7.4564
2023-04-21T09:49:46.808Z,7.4230
2023-04-21T09:52:05.908Z,7.5373
2023-04-21T09:52:47.996Z,7.4953
2023-04-21T09:53:49.459Z,7.4934
2023-04-21T09:54:49.580Z,7.4682
2023-04-21T09:55:49.643Z,7.5711
2023-04-21T09:56:49.711Z,7.4938
2023-04-21T09:57:49.772Z,7.6209
2023-04-21T09:58:49.882Z,7.7120
2023-04-21T09:59:49.938Z,7.8560
2023-04-21T10:00:50.048Z,7.8289
2023-04-21T10:01:50.129Z,7.9028
2023-04-21T10:02:50.445Z,7.9904
2023-04-21T10:03:50.930Z,8.1439
2023-04-21T10:04:51.750Z,8.0264
2023-04-21T10:05:52.556Z,8.1132
2023-04-21T10:06:52.675Z,8.1204
2023-04-21T10:07:52.751Z,8.2237
2023-04-21T10:08:52.819Z,8.3832
2023-04-21T10:09:53.066Z,8.3204
2023-04-21T10:10:53.318Z,8.3760
2023-04-21T10:11:53.453Z,8.2647
2023-04-21T10:12:53.493Z,8.3692
2023-04-21T10:13:53.558Z,8.4327
2023-04-21T10:14:53.619Z,8.5249
2023-04-21T10:15:53.754Z,8.6644
2023-04-21T10:16:53.804Z,8.9381
2023-04-21T10:17:53.870Z,9.1146
2023-04-21T10:18:53.931Z,8.9506
2023-04-21T10:19:53.963Z,8.8696
2023-04-21T10:20:54.004Z,8.8934
2023-04-21T10:21:54.024Z,8.7462
2023-04-21T10:22:54.129Z,8.7717
2023-04-21T10:23:54.188Z,8.8316
2023-04-21T10:24:54.313Z,8.9143
2023-04-21T10:25:54.333Z,8.9770
2023-04-21T10:26:55.389Z,9.0233
2023-04-21T10:27:55.451Z,9.1227
2023-04-21T10:28:55.522Z,9.1400
2023-04-21T10:29:57.157Z,9.3125
2023-04-21T10:30:57.317Z,9.3082
2023-04-21T10:31:57.407Z,9.3816
2023-04-21T10:32:57.636Z,9.4444
2023-04-21T10:33:57.738Z,9.5187
2023-04-21T10:34:57.795Z,9.5624
2023-04-21T10:35:57.884Z,9.7028
2023-04-21T10:36:57.938Z,9.8199
2023-04-21T10:37:57.998Z,9.8462
2023-04-21T10:38:58.035Z,9.7128
2023-04-21T10:39:58.147Z,9.7431
2023-04-21T10:40:58.211Z,9.8355
2023-04-21T10:41:58.505Z,9.8975
2023-04-21T10:42:58.571Z,10.0283
2023-04-21T10:43:58.689Z,10.1026
2023-04-21T10:44:58.744Z,10.1815
2023-04-21T10:45:58.802Z,10.2430
2023-04-21T10:46:58.918Z,10.2839
2023-04-21T10:47:59.009Z,10.3652
2023-04-21T10:48:59.079Z,10.4534
2023-04-21T10:49:59.141Z,10.4921
2023-04-21T10:50:59.240Z,10.5586
2023-04-21T10:51:59.280Z,10.7180
2023-04-21T10:52:59.425Z,10.5269
2023-04-21T10:53:59.508Z,10.2633
2023-04-21T10:54:59.557Z,10.1726
2023-04-21T10:55:59.622Z,10.0603
2023-04-21T10:56:59.679Z,9.9332
2023-04-21T10:57:59.706Z,10.0023
2023-04-21T10:58:59.771Z,10.2038
2023-04-21T10:59:59.800Z,10.3517
2023-04-21T11:00:59.865Z,10.4000
2023-04-21T11:02:00.059Z,10.4766
2023-04-21T11:03:00.685Z,10.6563
2023-04-21T11:04:01.594Z,10.6201
2023-04-21T11:05:02.317Z,10.6807
2023-04-21T11:06:02.561Z,10.7403
2023-04-21T11:07:02.551Z,10.8445
2023-04-21T11:08:02.595Z,10.7483
2023-04-21T11:09:02.693Z,10.6444
2023-04-21T11:10:02.717Z,10.8101
2023-04-21T11:11:02.729Z,10.8961
2023-04-21T11:12:02.692Z,11.0783
2023-04-21T11:13:02.675Z,11.0126
2023-04-21T11:14:02.754Z,10.7575
2023-04-21T11:15:02.830Z,10.9696
2023-04-21T11:16:02.810Z,11.1458
2023-04-21T11:17:02.938Z,11.2458
2023-04-21T11:18:03.025Z,11.3729
2023-04-21T11:19:03.137Z,11.4218
2023-04-21T11:20:03.138Z,11.6776
2023-04-21T11:21:03.114Z,11.0652
2023-04-21T11:22:03.117Z,11.4167
2023-04-21T11:23:03.069Z,11.4888
2023-04-21T11:24:03.264Z,11.8253
2023-04-21T11:25:03.463Z,11.7896
2023-04-21T11:26:03.491Z,11.5676
2023-04-21T11:27:03.500Z,11.8703
2023-04-21T11:28:03.497Z,12.0256
2023-04-21T11:29:03.560Z,11.8770
2023-04-21T11:30:03.461Z,11.5834
2023-04-21T11:31:03.493Z,11.6324
2023-04-21T11:32:03.460Z,11.5788
2023-04-21T11:33:03.499Z,11.5926
2023-04-21T11:34:03.442Z,11.7525
2023-04-21T11:35:03.453Z,11.7203
2023-04-21T11:36:03.479Z,11.8200
2023-04-21T11:37:03.435Z,11.9213
2023-04-21T11:38:03.425Z,11.7923
2023-04-21T11:39:03.426Z,11.4501
2023-04-21T11:40:03.413Z,11.1689
2023-04-21T11:41:03.391Z,11.2056
2023-04-21T11:42:03.392Z,11.2206
2023-04-21T11:43:03.338Z,11.3437
2023-04-21T11:44:03.319Z,11.4791
2023-04-21T11:45:03.315Z,11.5005
2023-04-21T11:46:03.346Z,11.6382
2023-04-21T11:47:03.310Z,11.5842
2023-04-21T11:48:03.363Z,11.4422
2023-04-21T11:49:03.435Z,11.6791
2023-04-21T11:50:03.420Z,11.6140
2023-04-21T11:51:03.417Z,11.4078
2023-04-21T11:52:03.386Z,11.2708
2023-04-21T11:53:03.416Z,11.2004
2023-04-21T11:54:03.441Z,11.0702
2023-04-21T11:55:03.446Z,10.9756
2023-04-21T11:56:03.464Z,10.9120
2023-04-21T11:57:03.447Z,10.8809
2023-04-21T11:58:03.474Z,11.0622
2023-04-21T11:59:03.451Z,10.9034
2023-04-21T12:00:03.530Z,11.0292
2023-04-21T12:01:03.511Z,11.3530
2023-04-21T12:02:03.546Z,11.5805
2023-04-21T12:03:03.819Z,11.8480
2023-04-21T12:04:04.343Z,11.9435
2023-04-21T12:05:05.166Z,11.9865
2023-04-21T12:06:05.858Z,11.8754
2023-04-21T12:07:06.136Z,11.9574
2023-04-21T12:08:06.170Z,11.8743
2023-04-21T12:09:06.247Z,12.0532
2023-04-21T12:10:06.369Z,12.1945
2023-04-21T12:11:06.570Z,12.1505
2023-04-21T12:12:06.582Z,12.0200
2023-04-21T12:13:06.656Z,11.9037
2023-04-21T12:14:06.694Z,11.8602
2023-04-21T12:15:06.700Z,11.9014
2023-04-21T12:16:06.774Z,11.6898
2023-04-21T12:17:06.873Z,11.7240
2023-04-21T12:18:06.920Z,11.5355
2023-04-21T12:19:06.992Z,11.6554
2023-04-21T12:20:07.065Z,12.0975
2023-04-21T12:21:07.195Z,11.8958
2023-04-21T12:22:07.251Z,11.8205
2023-04-21T12:23:07.310Z,11.9667
2023-04-21T12:24:07.304Z,11.7422
2023-04-21T12:25:07.377Z,11.6938
2023-04-21T12:26:07.404Z,11.6719
2023-04-21T12:27:07.398Z,11.7850
2023-04-21T12:28:07.432Z,11.8249
2023-04-21T12:29:07.432Z,11.7719